sensor_id;sensor_type;location;lat;lon;timestamp;temperature;humidity
43607;DHT22;29197;44.788;10.366;2024-03-08T00:01:02;10.40;99.90
43607;DHT22;29197;44.788;10.366;2024-03-08T00:03:51;10.30;99.90
43607;DHT22;29197;44.788;10.366;2024-03-08T00:06:39;10.10;99.90
43607;DHT22;29197;44.788;10.366;2024-03-08T00:09:28;10.20;99.90
43607;DHT22;29197;44.788;10.366;2024-03-08T00:12:17;10.30;99.90
43607;DHT22;29197;44.788;10.366;2024-03-08T00:15:09;10.40;99.90
43607;DHT22;29197;44.788;10.366;2024-03-08T00:17:58;10.50;99.90
43607;DHT22;29197;44.788;10.366;2024-03-08T00:20:47;10.40;99.90
43607;DHT22;29197;44.788;10.366;2024-03-08T00:23:35;10.30;99.90
43607;DHT22;29197;44.788;10.366;2024-03-08T00:26:24;10.40;99.90
43607;DHT22;29197;44.788;10.366;2024-03-08T00:29:12;10.40;99.90
43607;DHT22;29197;44.788;10.366;2024-03-08T00:32:02;10.40;99.90
43607;DHT22;29197;44.788;10.366;2024-03-08T00:34:51;10.60;99.90
43607;DHT22;29197;44.788;10.366;2024-03-08T00:37:40;10.70;99.90
43607;DHT22;29197;44.788;10.366;2024-03-08T00:40:29;10.80;99.90
43607;DHT22;29197;44.788;10.366;2024-03-08T00:43:17;10.90;99.90
43607;DHT22;29197;44.788;10.366;2024-03-08T00:46:06;10.90;99.90
43607;DHT22;29197;44.788;10.366;2024-03-08T00:48:56;10.90;99.90
43607;DHT22;29197;44.788;10.366;2024-03-08T00:51:45;10.90;99.90
43607;DHT22;29197;44.788;10.366;2024-03-08T00:54:33;10.80;99.90
43607;DHT22;29197;44.788;10.366;2024-03-08T00:57:23;10.80;99.90
43607;DHT22;29197;44.788;10.366;2024-03-08T01:00:12;10.80;99.90
43607;DHT22;29197;44.788;10.366;2024-03-08T01:03:01;10.90;99.90
43607;DHT22;29197;44.788;10.366;2024-03-08T01:05:52;10.80;99.90
43607;DHT22;29197;44.788;10.366;2024-03-08T01:08:40;10.80;99.90
43607;DHT22;29197;44.788;10.366;2024-03-08T01:11:29;10.80;99.90
43607;DHT22;29197;44.788;10.366;2024-03-08T01:14:18;10.80;99.90
43607;DHT22;29197;44.788;10.366;2024-03-08T01:17:06;10.80;99.90
43607;DHT22;29197;44.788;10.366;2024-03-08T01:19:56;10.80;99.90
43607;DHT22;29197;44.788;10.366;2024-03-08T01:22:47;10.90;99.90
43607;DHT22;29197;44.788;10.366;2024-03-08T01:25:35;10.80;99.90
43607;DHT22;29197;44.788;10.366;2024-03-08T01:28:24;10.80;99.90
43607;DHT22;29197;44.788;10.366;2024-03-08T01:31:13;10.80;99.90
43607;DHT22;29197;44.788;10.366;2024-03-08T01:34:01;10.80;99.90
43607;DHT22;29197;44.788;10.366;2024-03-08T01:36:50;10.90;99.90
43607;DHT22;29197;44.788;10.366;2024-03-08T01:39:40;10.90;99.90
43607;DHT22;29197;44.788;10.366;2024-03-08T01:42:28;10.80;99.90
43607;DHT22;29197;44.788;10.366;2024-03-08T01:45:17;10.80;99.90
43607;DHT22;29197;44.788;10.366;2024-03-08T01:48:06;10.80;99.90
43607;DHT22;29197;44.788;10.366;2024-03-08T01:51:02;10.80;99.90
43607;DHT22;29197;44.788;10.366;2024-03-08T01:53:57;10.80;99.90
43607;DHT22;29197;44.788;10.366;2024-03-08T01:56:47;10.80;99.90
43607;DHT22;29197;44.788;10.366;2024-03-08T01:59:36;10.80;99.90
43607;DHT22;29197;44.788;10.366;2024-03-08T02:02:25;10.80;99.90
43607;DHT22;29197;44.788;10.366;2024-03-08T02:05:15;10.80;99.90
43607;DHT22;29197;44.788;10.366;2024-03-08T02:08:04;10.60;99.90
43607;DHT22;29197;44.788;10.366;2024-03-08T02:10:54;10.70;99.90
43607;DHT22;29197;44.788;10.366;2024-03-08T02:13:44;10.60;99.90
43607;DHT22;29197;44.788;10.366;2024-03-08T02:16:33;10.50;99.90
43607;DHT22;29197;44.788;10.366;2024-03-08T02:19:21;10.50;99.90
43607;DHT22;29197;44.788;10.366;2024-03-08T02:22:11;10.50;99.90
43607;DHT22;29197;44.788;10.366;2024-03-08T02:24:59;10.50;99.90
43607;DHT22;29197;44.788;10.366;2024-03-08T02:27:49;10.50;99.90
43607;DHT22;29197;44.788;10.366;2024-03-08T02:30:38;10.40;99.90
43607;DHT22;29197;44.788;10.366;2024-03-08T02:33:28;10.30;99.90
43607;DHT22;29197;44.788;10.366;2024-03-08T02:36:17;10.30;99.90
43607;DHT22;29197;44.788;10.366;2024-03-08T02:41:57;10.00;99.90
43607;DHT22;29197;44.788;10.366;2024-03-08T02:44:46;10.00;99.90
43607;DHT22;29197;44.788;10.366;2024-03-08T02:47:35;10.00;99.90
43607;DHT22;29197;44.788;10.366;2024-03-08T02:50:24;10.10;99.90
43607;DHT22;29197;44.788;10.366;2024-03-08T02:53:13;10.10;99.90
43607;DHT22;29197;44.788;10.366;2024-03-08T02:56:03;10.10;99.90
43607;DHT22;29197;44.788;10.366;2024-03-08T02:58:56;10.00;99.90
43607;DHT22;29197;44.788;10.366;2024-03-08T03:01:44;10.00;99.90
43607;DHT22;29197;44.788;10.366;2024-03-08T03:04:33;9.90;99.90
43607;DHT22;29197;44.788;10.366;2024-03-08T03:07:21;9.60;99.90
43607;DHT22;29197;44.788;10.366;2024-03-08T03:10:10;9.60;99.90
43607;DHT22;29197;44.788;10.366;2024-03-08T03:13:01;9.60;99.90
43607;DHT22;29197;44.788;10.366;2024-03-08T03:15:49;9.70;99.90
43607;DHT22;29197;44.788;10.366;2024-03-08T03:18:38;9.80;99.90
43607;DHT22;29197;44.788;10.366;2024-03-08T03:21:28;9.90;99.90
43607;DHT22;29197;44.788;10.366;2024-03-08T03:24:19;10.00;99.90
43607;DHT22;29197;44.788;10.366;2024-03-08T03:27:08;9.80;99.90
43607;DHT22;29197;44.788;10.366;2024-03-08T03:30:00;9.80;99.90
43607;DHT22;29197;44.788;10.366;2024-03-08T03:33:08;9.90;99.90
43607;DHT22;29197;44.788;10.366;2024-03-08T03:35:57;9.90;99.90
43607;DHT22;29197;44.788;10.366;2024-03-08T03:38:46;10.10;99.90
43607;DHT22;29197;44.788;10.366;2024-03-08T03:41:35;10.20;99.90
43607;DHT22;29197;44.788;10.366;2024-03-08T03:44:24;10.10;99.90
43607;DHT22;29197;44.788;10.366;2024-03-08T03:47:14;10.20;99.90
43607;DHT22;29197;44.788;10.366;2024-03-08T03:50:03;10.20;99.90
43607;DHT22;29197;44.788;10.366;2024-03-08T03:52:52;10.30;99.90
43607;DHT22;29197;44.788;10.366;2024-03-08T03:55:40;10.30;99.90
43607;DHT22;29197;44.788;10.366;2024-03-08T03:58:29;10.30;99.90
43607;DHT22;29197;44.788;10.366;2024-03-08T04:01:18;10.20;99.90
43607;DHT22;29197;44.788;10.366;2024-03-08T04:04:08;10.20;99.90
43607;DHT22;29197;44.788;10.366;2024-03-08T04:06:57;10.00;99.90
43607;DHT22;29197;44.788;10.366;2024-03-08T04:09:46;9.80;99.90
43607;DHT22;29197;44.788;10.366;2024-03-08T04:12:34;9.70;99.90
43607;DHT22;29197;44.788;10.366;2024-03-08T04:15:23;9.70;99.90
43607;DHT22;29197;44.788;10.366;2024-03-08T04:18:12;9.80;99.90
43607;DHT22;29197;44.788;10.366;2024-03-08T04:21:02;9.80;99.90
43607;DHT22;29197;44.788;10.366;2024-03-08T04:23:53;9.80;99.90
43607;DHT22;29197;44.788;10.366;2024-03-08T04:26:42;9.70;99.90
43607;DHT22;29197;44.788;10.366;2024-03-08T04:29:31;9.70;99.90
43607;DHT22;29197;44.788;10.366;2024-03-08T04:32:20;9.70;99.90
43607;DHT22;29197;44.788;10.366;2024-03-08T04:35:09;9.70;99.90
43607;DHT22;29197;44.788;10.366;2024-03-08T04:38:01;9.70;99.90
43607;DHT22;29197;44.788;10.366;2024-03-08T04:40:52;9.70;99.90
43607;DHT22;29197;44.788;10.366;2024-03-08T04:43:41;9.90;99.90
43607;DHT22;29197;44.788;10.366;2024-03-08T04:46:29;9.90;99.90
43607;DHT22;29197;44.788;10.366;2024-03-08T04:49:18;9.90;99.90
43607;DHT22;29197;44.788;10.366;2024-03-08T04:52:09;9.90;99.90
43607;DHT22;29197;44.788;10.366;2024-03-08T04:54:59;9.90;99.90
43607;DHT22;29197;44.788;10.366;2024-03-08T04:57:49;9.90;99.90
43607;DHT22;29197;44.788;10.366;2024-03-08T05:00:37;9.90;99.90
43607;DHT22;29197;44.788;10.366;2024-03-08T05:03:26;9.90;99.90
43607;DHT22;29197;44.788;10.366;2024-03-08T05:06:15;10.00;99.90
43607;DHT22;29197;44.788;10.366;2024-03-08T05:09:03;9.90;99.90
43607;DHT22;29197;44.788;10.366;2024-03-08T05:12:03;9.80;99.90
43607;DHT22;29197;44.788;10.366;2024-03-08T05:14:51;9.70;99.90
43607;DHT22;29197;44.788;10.366;2024-03-08T05:17:41;9.60;99.90
43607;DHT22;29197;44.788;10.366;2024-03-08T05:20:30;9.70;99.90
43607;DHT22;29197;44.788;10.366;2024-03-08T05:23:19;9.60;99.90
43607;DHT22;29197;44.788;10.366;2024-03-08T05:26:07;9.60;99.90
43607;DHT22;29197;44.788;10.366;2024-03-08T05:28:57;9.70;99.90
43607;DHT22;29197;44.788;10.366;2024-03-08T05:31:47;9.70;99.90
43607;DHT22;29197;44.788;10.366;2024-03-08T05:34:36;9.60;99.90
43607;DHT22;29197;44.788;10.366;2024-03-08T05:37:25;9.50;99.90
43607;DHT22;29197;44.788;10.366;2024-03-08T05:40:13;9.50;99.90
43607;DHT22;29197;44.788;10.366;2024-03-08T05:43:05;9.50;99.90
43607;DHT22;29197;44.788;10.366;2024-03-08T05:45:55;9.50;99.90
43607;DHT22;29197;44.788;10.366;2024-03-08T05:48:43;9.60;99.90
43607;DHT22;29197;44.788;10.366;2024-03-08T05:51:32;9.60;99.90
43607;DHT22;29197;44.788;10.366;2024-03-08T05:54:21;9.60;99.90
43607;DHT22;29197;44.788;10.366;2024-03-08T05:57:12;9.50;99.90
43607;DHT22;29197;44.788;10.366;2024-03-08T06:00:01;9.50;99.90
43607;DHT22;29197;44.788;10.366;2024-03-08T06:02:51;9.50;99.90
43607;DHT22;29197;44.788;10.366;2024-03-08T06:05:40;9.50;99.90
43607;DHT22;29197;44.788;10.366;2024-03-08T06:08:29;9.50;99.90
43607;DHT22;29197;44.788;10.366;2024-03-08T06:11:19;9.50;99.90
43607;DHT22;29197;44.788;10.366;2024-03-08T06:14:08;9.40;99.90
43607;DHT22;29197;44.788;10.366;2024-03-08T06:16:56;9.40;99.90
43607;DHT22;29197;44.788;10.366;2024-03-08T06:19:46;9.40;99.90
43607;DHT22;29197;44.788;10.366;2024-03-08T06:22:35;9.30;99.90
43607;DHT22;29197;44.788;10.366;2024-03-08T06:25:23;9.20;99.90
43607;DHT22;29197;44.788;10.366;2024-03-08T06:28:12;9.20;99.90
43607;DHT22;29197;44.788;10.366;2024-03-08T06:31:02;9.20;99.90
43607;DHT22;29197;44.788;10.366;2024-03-08T06:33:50;9.30;99.90
43607;DHT22;29197;44.788;10.366;2024-03-08T06:36:44;9.30;99.90
43607;DHT22;29197;44.788;10.366;2024-03-08T06:39:33;9.30;99.90
43607;DHT22;29197;44.788;10.366;2024-03-08T06:42:23;9.40;99.90
43607;DHT22;29197;44.788;10.366;2024-03-08T06:45:11;9.50;99.90
43607;DHT22;29197;44.788;10.366;2024-03-08T06:48:03;9.60;99.90
43607;DHT22;29197;44.788;10.366;2024-03-08T06:50:57;9.50;99.90
43607;DHT22;29197;44.788;10.366;2024-03-08T06:53:47;9.50;99.90
43607;DHT22;29197;44.788;10.366;2024-03-08T06:56:36;9.60;99.90
43607;DHT22;29197;44.788;10.366;2024-03-08T06:59:25;9.50;99.90
43607;DHT22;29197;44.788;10.366;2024-03-08T07:02:13;9.30;99.90
43607;DHT22;29197;44.788;10.366;2024-03-08T07:05:02;9.30;99.90
43607;DHT22;29197;44.788;10.366;2024-03-08T07:07:51;9.30;99.90
43607;DHT22;29197;44.788;10.366;2024-03-08T07:10:41;9.40;99.90
43607;DHT22;29197;44.788;10.366;2024-03-08T07:13:32;9.50;99.90
43607;DHT22;29197;44.788;10.366;2024-03-08T07:16:20;9.50;99.90
43607;DHT22;29197;44.788;10.366;2024-03-08T07:19:09;9.50;99.90
43607;DHT22;29197;44.788;10.366;2024-03-08T07:21:58;9.70;99.90
43607;DHT22;29197;44.788;10.366;2024-03-08T07:24:46;9.60;99.90
43607;DHT22;29197;44.788;10.366;2024-03-08T07:27:54;9.50;99.90
43607;DHT22;29197;44.788;10.366;2024-03-08T07:30:43;9.60;99.90
43607;DHT22;29197;44.788;10.366;2024-03-08T07:33:55;9.60;99.90
43607;DHT22;29197;44.788;10.366;2024-03-08T07:36:43;9.60;99.90
43607;DHT22;29197;44.788;10.366;2024-03-08T07:39:32;9.70;99.90
43607;DHT22;29197;44.788;10.366;2024-03-08T07:42:20;9.70;99.90
43607;DHT22;29197;44.788;10.366;2024-03-08T07:45:11;9.50;99.90
43607;DHT22;29197;44.788;10.366;2024-03-08T07:48:00;9.50;99.90
43607;DHT22;29197;44.788;10.366;2024-03-08T07:50:50;9.50;99.90
43607;DHT22;29197;44.788;10.366;2024-03-08T07:53:39;9.50;99.90
43607;DHT22;29197;44.788;10.366;2024-03-08T07:56:28;9.30;99.90
43607;DHT22;29197;44.788;10.366;2024-03-08T07:59:17;9.20;99.90
43607;DHT22;29197;44.788;10.366;2024-03-08T08:02:07;9.30;99.90
43607;DHT22;29197;44.788;10.366;2024-03-08T08:04:55;9.40;99.90
43607;DHT22;29197;44.788;10.366;2024-03-08T08:07:46;9.50;99.90
43607;DHT22;29197;44.788;10.366;2024-03-08T08:10:38;9.50;99.90
43607;DHT22;29197;44.788;10.366;2024-03-08T08:13:27;9.60;99.90
43607;DHT22;29197;44.788;10.366;2024-03-08T08:16:19;9.80;99.90
43607;DHT22;29197;44.788;10.366;2024-03-08T08:19:09;9.80;99.90
43607;DHT22;29197;44.788;10.366;2024-03-08T08:22:01;9.80;99.90
43607;DHT22;29197;44.788;10.366;2024-03-08T08:24:50;9.80;99.90
43607;DHT22;29197;44.788;10.366;2024-03-08T08:27:39;9.90;99.90
43607;DHT22;29197;44.788;10.366;2024-03-08T08:30:29;9.90;99.90
43607;DHT22;29197;44.788;10.366;2024-03-08T08:33:20;10.00;99.90
43607;DHT22;29197;44.788;10.366;2024-03-08T08:36:10;9.90;99.90
43607;DHT22;29197;44.788;10.366;2024-03-08T08:38:59;9.90;99.90
43607;DHT22;29197;44.788;10.366;2024-03-08T08:41:50;10.00;99.90
43607;DHT22;29197;44.788;10.366;2024-03-08T08:44:42;10.20;99.90
43607;DHT22;29197;44.788;10.366;2024-03-08T08:47:31;10.30;99.90
43607;DHT22;29197;44.788;10.366;2024-03-08T08:50:19;10.30;99.90
43607;DHT22;29197;44.788;10.366;2024-03-08T08:53:12;10.40;99.90
43607;DHT22;29197;44.788;10.366;2024-03-08T08:56:02;10.40;99.90
43607;DHT22;29197;44.788;10.366;2024-03-08T08:58:50;10.50;99.90
43607;DHT22;29197;44.788;10.366;2024-03-08T09:01:40;10.50;99.90
43607;DHT22;29197;44.788;10.366;2024-03-08T09:04:29;10.60;99.90
43607;DHT22;29197;44.788;10.366;2024-03-08T09:10:09;11.00;99.90
43607;DHT22;29197;44.788;10.366;2024-03-08T09:13:02;11.20;99.90
43607;DHT22;29197;44.788;10.366;2024-03-08T09:15:51;11.00;99.90
43607;DHT22;29197;44.788;10.366;2024-03-08T09:18:40;10.90;99.90
43607;DHT22;29197;44.788;10.366;2024-03-08T09:21:30;10.90;99.90
43607;DHT22;29197;44.788;10.366;2024-03-08T09:24:19;10.90;99.90
43607;DHT22;29197;44.788;10.366;2024-03-08T09:27:09;10.90;99.90
43607;DHT22;29197;44.788;10.366;2024-03-08T09:29:58;10.90;99.90
43607;DHT22;29197;44.788;10.366;2024-03-08T09:32:46;10.90;99.90
43607;DHT22;29197;44.788;10.366;2024-03-08T09:35:35;10.90;99.90
43607;DHT22;29197;44.788;10.366;2024-03-08T09:41:13;11.00;99.90
43607;DHT22;29197;44.788;10.366;2024-03-08T09:44:04;11.10;99.90
43607;DHT22;29197;44.788;10.366;2024-03-08T09:46:52;11.10;99.90
43607;DHT22;29197;44.788;10.366;2024-03-08T09:49:42;11.10;99.90
43607;DHT22;29197;44.788;10.366;2024-03-08T09:52:31;11.20;99.90
43607;DHT22;29197;44.788;10.366;2024-03-08T17:03:41;11.30;99.90
43607;DHT22;29197;44.788;10.366;2024-03-08T17:06:46;11.20;99.90
43607;DHT22;29197;44.788;10.366;2024-03-08T17:09:37;11.10;99.90
43607;DHT22;29197;44.788;10.366;2024-03-08T17:12:29;11.10;99.90
43607;DHT22;29197;44.788;10.366;2024-03-08T17:15:20;11.00;99.90
43607;DHT22;29197;44.788;10.366;2024-03-08T17:18:09;11.00;99.90
43607;DHT22;29197;44.788;10.366;2024-03-08T17:20:59;11.00;99.90
43607;DHT22;29197;44.788;10.366;2024-03-08T17:23:52;11.00;99.90
43607;DHT22;29197;44.788;10.366;2024-03-08T17:26:43;10.90;99.90
43607;DHT22;29197;44.788;10.366;2024-03-08T17:29:44;10.90;99.90
43607;DHT22;29197;44.788;10.366;2024-03-08T17:32:34;10.80;99.90
43607;DHT22;29197;44.788;10.366;2024-03-08T17:35:36;10.80;99.90
43607;DHT22;29197;44.788;10.366;2024-03-08T17:38:28;10.80;99.90
43607;DHT22;29197;44.788;10.366;2024-03-08T17:41:21;10.80;99.90
43607;DHT22;29197;44.788;10.366;2024-03-08T17:44:15;10.80;99.90
43607;DHT22;29197;44.788;10.366;2024-03-08T17:47:07;10.70;99.90
43607;DHT22;29197;44.788;10.366;2024-03-08T17:49:58;10.70;99.90
43607;DHT22;29197;44.788;10.366;2024-03-08T17:52:49;10.80;99.90
43607;DHT22;29197;44.788;10.366;2024-03-08T17:55:41;10.80;99.90
43607;DHT22;29197;44.788;10.366;2024-03-08T17:58:31;10.70;99.90
43607;DHT22;29197;44.788;10.366;2024-03-08T18:01:25;10.60;99.90
43607;DHT22;29197;44.788;10.366;2024-03-08T18:04:21;10.70;99.90
43607;DHT22;29197;44.788;10.366;2024-03-08T18:07:12;10.70;99.90
43607;DHT22;29197;44.788;10.366;2024-03-08T18:10:03;10.70;99.90
43607;DHT22;29197;44.788;10.366;2024-03-08T18:12:55;10.60;99.90
43607;DHT22;29197;44.788;10.366;2024-03-08T18:15:50;10.50;99.90
43607;DHT22;29197;44.788;10.366;2024-03-08T18:18:40;10.50;99.90
43607;DHT22;29197;44.788;10.366;2024-03-08T18:21:36;10.50;99.90
43607;DHT22;29197;44.788;10.366;2024-03-08T18:24:33;10.50;99.90
43607;DHT22;29197;44.788;10.366;2024-03-08T18:27:21;10.50;99.90
43607;DHT22;29197;44.788;10.366;2024-03-08T18:30:16;10.30;99.90
43607;DHT22;29197;44.788;10.366;2024-03-08T18:33:07;10.40;99.90
43607;DHT22;29197;44.788;10.366;2024-03-08T18:36:07;10.40;99.90
43607;DHT22;29197;44.788;10.366;2024-03-08T18:39:03;10.30;99.90
43607;DHT22;29197;44.788;10.366;2024-03-08T18:41:54;10.30;99.90
43607;DHT22;29197;44.788;10.366;2024-03-08T18:44:51;10.30;99.90
43607;DHT22;29197;44.788;10.366;2024-03-08T18:47:44;10.30;99.90
43607;DHT22;29197;44.788;10.366;2024-03-08T18:50:40;10.30;99.90
43607;DHT22;29197;44.788;10.366;2024-03-08T18:53:36;10.20;99.90
43607;DHT22;29197;44.788;10.366;2024-03-08T18:56:31;10.20;99.90
43607;DHT22;29197;44.788;10.366;2024-03-08T18:59:22;10.20;99.90
43607;DHT22;29197;44.788;10.366;2024-03-08T19:02:13;10.20;99.90
43607;DHT22;29197;44.788;10.366;2024-03-08T19:05:06;10.10;99.90
43607;DHT22;29197;44.788;10.366;2024-03-08T19:08:10;10.10;99.90
43607;DHT22;29197;44.788;10.366;2024-03-08T19:11:09;10.10;99.90
43607;DHT22;29197;44.788;10.366;2024-03-08T19:14:05;10.10;99.90
43607;DHT22;29197;44.788;10.366;2024-03-08T19:16:59;10.10;99.90
43607;DHT22;29197;44.788;10.366;2024-03-08T19:19:51;10.10;99.90
43607;DHT22;29197;44.788;10.366;2024-03-08T19:22:57;10.10;99.90
43607;DHT22;29197;44.788;10.366;2024-03-08T19:25:48;10.10;99.90
43607;DHT22;29197;44.788;10.366;2024-03-08T19:28:39;10.00;99.90
43607;DHT22;29197;44.788;10.366;2024-03-08T19:31:29;10.00;99.90
43607;DHT22;29197;44.788;10.366;2024-03-08T19:34:20;10.00;99.90
43607;DHT22;29197;44.788;10.366;2024-03-08T19:37:15;10.00;99.90
43607;DHT22;29197;44.788;10.366;2024-03-08T19:40:08;10.00;99.90
43607;DHT22;29197;44.788;10.366;2024-03-08T19:43:04;10.00;99.90
43607;DHT22;29197;44.788;10.366;2024-03-08T19:45:54;10.00;99.90
43607;DHT22;29197;44.788;10.366;2024-03-08T19:48:45;10.00;99.90
43607;DHT22;29197;44.788;10.366;2024-03-08T19:51:39;10.00;99.90
43607;DHT22;29197;44.788;10.366;2024-03-08T19:54:32;10.20;99.90
43607;DHT22;29197;44.788;10.366;2024-03-08T19:57:23;10.10;99.90
43607;DHT22;29197;44.788;10.366;2024-03-08T20:00:14;10.10;99.90
43607;DHT22;29197;44.788;10.366;2024-03-08T20:03:05;10.10;99.90
43607;DHT22;29197;44.788;10.366;2024-03-08T20:06:04;10.10;99.90
43607;DHT22;29197;44.788;10.366;2024-03-08T20:08:59;10.10;99.90
43607;DHT22;29197;44.788;10.366;2024-03-08T20:11:48;10.20;99.90
43607;DHT22;29197;44.788;10.366;2024-03-08T20:14:37;10.10;99.90
43607;DHT22;29197;44.788;10.366;2024-03-08T20:17:31;10.10;99.90
43607;DHT22;29197;44.788;10.366;2024-03-08T20:20:22;10.10;99.90
43607;DHT22;29197;44.788;10.366;2024-03-08T20:23:12;10.10;99.90
43607;DHT22;29197;44.788;10.366;2024-03-08T20:26:03;10.10;99.90
43607;DHT22;29197;44.788;10.366;2024-03-08T20:28:58;10.10;99.90
43607;DHT22;29197;44.788;10.366;2024-03-08T20:31:47;10.10;99.90
43607;DHT22;29197;44.788;10.366;2024-03-08T20:34:35;10.10;99.90
43607;DHT22;29197;44.788;10.366;2024-03-08T20:37:26;10.10;99.90
43607;DHT22;29197;44.788;10.366;2024-03-08T20:40:21;10.10;99.90
43607;DHT22;29197;44.788;10.366;2024-03-08T20:43:18;10.10;99.90
43607;DHT22;29197;44.788;10.366;2024-03-08T20:46:10;10.10;99.90
43607;DHT22;29197;44.788;10.366;2024-03-08T20:49:07;10.10;99.90
43607;DHT22;29197;44.788;10.366;2024-03-08T20:52:04;10.10;99.90
43607;DHT22;29197;44.788;10.366;2024-03-08T20:54:55;10.10;99.90
43607;DHT22;29197;44.788;10.366;2024-03-08T20:57:53;10.10;99.90
43607;DHT22;29197;44.788;10.366;2024-03-08T21:00:44;10.00;99.90
43607;DHT22;29197;44.788;10.366;2024-03-08T21:06:35;9.90;99.90
43607;DHT22;29197;44.788;10.366;2024-03-08T21:09:25;9.80;99.90
43607;DHT22;29197;44.788;10.366;2024-03-08T21:12:18;9.70;99.90
43607;DHT22;29197;44.788;10.366;2024-03-08T21:15:09;9.50;99.90
43607;DHT22;29197;44.788;10.366;2024-03-08T21:18:02;9.60;99.90
43607;DHT22;29197;44.788;10.366;2024-03-08T21:21:04;9.70;99.90
43607;DHT22;29197;44.788;10.366;2024-03-08T21:23:56;9.70;99.90
43607;DHT22;29197;44.788;10.366;2024-03-08T21:26:50;9.70;99.90
43607;DHT22;29197;44.788;10.366;2024-03-08T21:29:53;9.80;99.90
43607;DHT22;29197;44.788;10.366;2024-03-08T21:32:52;9.80;99.90
43607;DHT22;29197;44.788;10.366;2024-03-08T21:35:43;9.80;99.90
43607;DHT22;29197;44.788;10.366;2024-03-08T21:38:46;9.70;99.90
43607;DHT22;29197;44.788;10.366;2024-03-08T21:41:37;9.70;99.90
43607;DHT22;29197;44.788;10.366;2024-03-08T21:44:32;9.70;99.90
43607;DHT22;29197;44.788;10.366;2024-03-08T21:47:23;9.70;99.90
43607;DHT22;29197;44.788;10.366;2024-03-08T21:50:24;9.80;99.90
43607;DHT22;29197;44.788;10.366;2024-03-08T21:53:17;9.80;99.90
43607;DHT22;29197;44.788;10.366;2024-03-08T21:56:19;9.70;99.90
43607;DHT22;29197;44.788;10.366;2024-03-08T21:59:08;9.70;99.90
43607;DHT22;29197;44.788;10.366;2024-03-08T22:01:57;9.70;99.90
43607;DHT22;29197;44.788;10.366;2024-03-08T22:04:51;9.70;99.90
43607;DHT22;29197;44.788;10.366;2024-03-08T22:07:54;9.80;99.90
43607;DHT22;29197;44.788;10.366;2024-03-08T22:10:45;9.80;99.90
43607;DHT22;29197;44.788;10.366;2024-03-08T22:13:40;9.80;99.90
43607;DHT22;29197;44.788;10.366;2024-03-08T22:16:31;9.80;99.90
43607;DHT22;29197;44.788;10.366;2024-03-08T22:19:24;9.80;99.90
43607;DHT22;29197;44.788;10.366;2024-03-08T22:22:18;9.80;99.90
43607;DHT22;29197;44.788;10.366;2024-03-08T22:25:12;9.70;99.90
43607;DHT22;29197;44.788;10.366;2024-03-08T22:28:02;9.70;99.90
43607;DHT22;29197;44.788;10.366;2024-03-08T22:31:00;9.70;99.90
43607;DHT22;29197;44.788;10.366;2024-03-08T22:33:50;9.70;99.90
43607;DHT22;29197;44.788;10.366;2024-03-08T22:36:42;9.70;99.90
43607;DHT22;29197;44.788;10.366;2024-03-08T22:39:30;9.70;99.90
43607;DHT22;29197;44.788;10.366;2024-03-08T22:42:24;9.60;99.90
43607;DHT22;29197;44.788;10.366;2024-03-08T22:45:16;9.60;99.90
43607;DHT22;29197;44.788;10.366;2024-03-08T22:48:07;9.70;99.90
43607;DHT22;29197;44.788;10.366;2024-03-08T22:50:57;9.70;99.90
43607;DHT22;29197;44.788;10.366;2024-03-08T22:53:49;9.70;99.90
43607;DHT22;29197;44.788;10.366;2024-03-08T22:56:40;9.70;99.90
43607;DHT22;29197;44.788;10.366;2024-03-08T22:59:30;9.80;99.90
43607;DHT22;29197;44.788;10.366;2024-03-08T23:02:19;9.70;99.90
43607;DHT22;29197;44.788;10.366;2024-03-08T23:05:08;9.70;99.90
43607;DHT22;29197;44.788;10.366;2024-03-08T23:07:58;9.70;99.90
43607;DHT22;29197;44.788;10.366;2024-03-08T23:10:48;9.70;99.90
43607;DHT22;29197;44.788;10.366;2024-03-08T23:13:38;9.70;99.90
43607;DHT22;29197;44.788;10.366;2024-03-08T23:16:31;9.70;99.90
43607;DHT22;29197;44.788;10.366;2024-03-08T23:19:21;9.80;99.90
43607;DHT22;29197;44.788;10.366;2024-03-08T23:22:10;9.70;99.90
43607;DHT22;29197;44.788;10.366;2024-03-08T23:24:59;9.70;99.90
43607;DHT22;29197;44.788;10.366;2024-03-08T23:27:52;9.70;99.90
43607;DHT22;29197;44.788;10.366;2024-03-08T23:30:41;9.70;99.90
43607;DHT22;29197;44.788;10.366;2024-03-08T23:33:33;9.80;99.90
43607;DHT22;29197;44.788;10.366;2024-03-08T23:36:22;9.80;99.90
43607;DHT22;29197;44.788;10.366;2024-03-08T23:39:11;9.80;99.90
43607;DHT22;29197;44.788;10.366;2024-03-08T23:41:59;9.80;99.90
43607;DHT22;29197;44.788;10.366;2024-03-08T23:44:48;9.80;99.90
43607;DHT22;29197;44.788;10.366;2024-03-08T23:47:37;9.90;99.90
43607;DHT22;29197;44.788;10.366;2024-03-08T23:50:28;9.90;99.90
43607;DHT22;29197;44.788;10.366;2024-03-08T23:53:18;9.90;99.90
43607;DHT22;29197;44.788;10.366;2024-03-08T23:56:07;10.00;99.90
43607;DHT22;29197;44.788;10.366;2024-03-08T23:58:56;10.00;99.90
